Time;durP1;ratioP1;P1;durP2;ratioP2;P2;SDS_P1;SDS_P2;PMS_P1;PMS_P2;Temp;Humidity;BMP_temperature;BMP_pressure;BME280_temperature;BME280_humidity;BME280_pressure;Samples;Min_cycle;Max_cycle;Signal;HPM_P1;HPM_P2
2023/10/10 00:00:23;;;;;;;8.63;6.78;;;17.90;99.90;;;;;;5125955;27;20390;-35
2023/10/10 00:02:51;;;;;;;8.57;6.55;;;17.90;99.90;;;;;;5059654;28;20040;-37
2023/10/10 00:05:18;;;;;;;8.27;6.65;;;17.90;99.90;;;;;;5127776;27;20054;-35
2023/10/10 00:07:46;;;;;;;9.85;7.00;;;17.90;99.90;;;;;;5063408;27;20020;-35
2023/10/10 00:10:13;;;;;;;9.52;6.70;;;17.90;99.90;;;;;;5129198;27;20529;-36
2023/10/10 00:12:41;;;;;;;8.52;7.18;;;17.90;99.90;;;;;;5063468;28;20029;-35
2023/10/10 00:15:12;;;;;;;9.15;7.22;;;17.90;99.90;;;;;;5119634;27;20027;-35
2023/10/10 00:17:38;;;;;;;8.30;7.22;;;17.80;99.90;;;;;;5068169;27;20124;-36
2023/10/10 00:20:22;;;;;;;8.32;6.72;;;17.90;99.90;;;;;;5109905;27;20109;-36
2023/10/10 00:22:49;;;;;;;8.02;7.03;;;17.90;99.90;;;;;;5067637;27;20103;-35
2023/10/10 00:25:17;;;;;;;8.07;6.65;;;17.90;99.90;;;;;;5110541;27;20114;-35
2023/10/10 00:27:48;;;;;;;8.18;7.30;;;17.90;99.90;;;;;;5079788;27;20036;-36
2023/10/10 00:30:14;;;;;;;7.72;6.72;;;17.90;99.90;;;;;;5088111;27;20823;-36
2023/10/10 00:32:42;;;;;;;11.13;7.40;;;17.90;99.90;;;;;;5143105;27;20030;-36
2023/10/10 00:35:11;;;;;;;8.90;7.30;;;17.80;99.90;;;;;;5140959;27;20049;-36
2023/10/10 00:37:40;;;;;;;10.65;7.32;;;17.80;99.90;;;;;;5132857;27;20034;-37
2023/10/10 00:40:09;;;;;;;8.68;7.35;;;17.70;99.90;;;;;;5149621;27;20357;-36
2023/10/10 00:42:40;;;;;;;8.38;7.32;;;17.80;99.90;;;;;;5124619;27;20107;-35
2023/10/10 00:45:10;;;;;;;8.98;7.38;;;17.70;99.90;;;;;;5120456;27;20024;-35
2023/10/10 00:47:49;;;;;;;9.68;7.20;;;17.70;99.90;;;;;;5115526;27;20025;-35
2023/10/10 00:50:18;;;;;;;10.52;7.50;;;17.70;99.90;;;;;;5072428;27;20025;-36
2023/10/10 00:52:48;;;;;;;9.38;7.75;;;17.60;99.90;;;;;;5116656;27;20034;-35
2023/10/10 00:55:21;;;;;;;7.63;6.82;;;17.60;99.90;;;;;;5070618;27;20010;-35
2023/10/10 00:57:52;;;;;;;8.68;7.22;;;17.60;99.90;;;;;;5098744;27;20462;-35
2023/10/10 01:00:30;;;;;;;9.55;7.72;;;17.60;99.90;;;;;;5161292;27;20667;-35
2023/10/10 01:03:14;;;;;;;8.23;7.40;;;17.60;99.90;;;;;;5098645;27;20138;-35
2023/10/10 01:05:43;;;;;;;8.98;7.40;;;17.60;99.90;;;;;;5160125;27;20011;-35
2023/10/10 01:08:09;;;;;;;9.73;7.75;;;17.60;99.90;;;;;;5099841;27;20014;-36
2023/10/10 01:10:43;;;;;;;9.25;8.05;;;17.60;99.90;;;;;;5159074;27;20029;-37
2023/10/10 01:13:10;;;;;;;7.93;6.80;;;17.60;99.90;;;;;;5107395;27;20022;-35
2023/10/10 01:15:37;;;;;;;7.82;7.03;;;17.60;99.90;;;;;;5074526;27;20527;-35
2023/10/10 01:18:03;;;;;;;8.88;7.97;;;17.60;99.90;;;;;;5121274;27;20123;-35
2023/10/10 01:20:45;;;;;;;9.77;7.82;;;17.60;99.90;;;;;;5062134;28;20055;-35
2023/10/10 01:23:26;;;;;;;8.25;7.30;;;17.60;99.90;;;;;;5121225;27;20033;-35
2023/10/10 01:25:52;;;;;;;8.43;7.38;;;17.50;99.90;;;;;;5065961;27;20055;-35
2023/10/10 01:33:37;;;;;;;7.70;6.85;;;17.50;99.90;;;;;;5100481;27;20023;-36
2023/10/10 01:36:11;;;;;;;8.57;7.43;;;17.50;99.90;;;;;;5167717;27;20615;-35
2023/10/10 01:38:55;;;;;;;8.15;7.22;;;17.40;99.90;;;;;;5103859;27;20033;-36
2023/10/10 01:41:24;;;;;;;8.15;7.28;;;17.40;99.90;;;;;;5163925;27;20030;-35
2023/10/10 01:43:53;;;;;;;8.07;7.28;;;17.40;99.90;;;;;;5106684;27;20653;-35
2023/10/10 01:46:28;;;;;;;9.18;7.55;;;17.30;99.90;;;;;;5040937;28;20021;-36
2023/10/10 01:48:54;;;;;;;8.98;8.10;;;17.30;99.90;;;;;;5107728;27;20046;-36
2023/10/10 01:51:20;;;;;;;10.25;7.88;;;17.30;99.90;;;;;;5167411;27;20041;-35
2023/10/10 01:53:48;;;;;;;8.88;7.90;;;17.30;99.90;;;;;;5099838;27;20037;-35
2023/10/10 01:56:14;;;;;;;9.10;8.20;;;17.20;99.90;;;;;;5167606;27;20086;-36
2023/10/10 01:58:41;;;;;;;9.43;7.75;;;17.20;99.90;;;;;;5105627;27;20037;-35
2023/10/10 02:01:16;;;;;;;10.15;8.20;;;17.20;99.90;;;;;;5162369;27;20030;-37
2023/10/10 02:03:43;;;;;;;8.27;7.35;;;17.20;99.90;;;;;;5112271;27;20032;-36
2023/10/10 02:06:14;;;;;;;9.35;8.30;;;17.20;99.90;;;;;;5156511;27;20526;-36
2023/10/10 02:08:44;;;;;;;8.88;7.90;;;17.20;99.90;;;;;;5120175;27;20421;-35
2023/10/10 02:11:12;;;;;;;10.60;8.45;;;17.20;99.90;;;;;;5150938;27;20018;-35
2023/10/10 02:13:39;;;;;;;12.05;9.10;;;17.20;99.90;;;;;;5129755;27;20028;-34
2023/10/10 02:16:11;;;;;;;10.65;8.93;;;17.20;99.90;;;;;;5138992;27;20022;-34
2023/10/10 02:18:44;;;;;;;11.57;8.23;;;17.20;99.90;;;;;;5143941;27;20030;-35
2023/10/10 02:21:16;;;;;;;9.52;8.52;;;17.20;99.90;;;;;;5092978;27;20036;-36
2023/10/10 02:23:45;;;;;;;9.98;9.00;;;17.20;99.90;;;;;;5085364;27;20026;-35
2023/10/10 02:26:20;;;;;;;11.25;9.70;;;17.20;99.90;;;;;;5099301;27;20368;-36
2023/10/10 02:28:49;;;;;;;11.05;9.88;;;17.20;99.90;;;;;;5080780;27;20027;-36
2023/10/10 02:31:24;;;;;;;12.40;10.80;;;17.20;99.90;;;;;;5104525;27;20107;-37
2023/10/10 02:33:54;;;;;;;11.82;10.48;;;17.20;99.90;;;;;;5077465;27;20104;-35
2023/10/10 02:36:30;;;;;;;13.57;11.07;;;17.20;99.90;;;;;;5107534;27;20059;-35
2023/10/10 02:42:01;;;;;;;19.27;9.23;;;17.30;99.90;;;;;;5072749;27;20044;-35
2023/10/10 02:44:38;;;;;;;9.85;8.73;;;17.20;99.90;;;;;;5089852;27;20034;-35
2023/10/10 02:47:08;;;;;;;9.90;8.80;;;17.20;99.90;;;;;;5089447;27;20024;-36
2023/10/10 02:49:37;;;;;;;9.68;8.68;;;17.20;99.90;;;;;;5086043;27;20130;-35
2023/10/10 02:52:06;;;;;;;9.80;8.80;;;17.20;99.90;;;;;;5099795;27;20092;-34
2023/10/10 02:54:43;;;;;;;10.05;9.05;;;17.10;99.90;;;;;;5076965;27;20482;-35
2023/10/10 02:59:52;;;;;;;9.23;8.32;;;17.20;99.90;;;;;;5083178;27;20024;-35
2023/10/10 03:02:40;;;;;;;10.55;9.45;;;17.20;99.90;;;;;;5103087;27;20047;-35
2023/10/10 03:05:06;;;;;;;11.13;9.93;;;17.20;99.90;;;;;;5085462;27;20488;-36
2023/10/10 03:07:34;;;;;;;16.60;10.15;;;17.20;99.90;;;;;;5100617;27;20020;-36
2023/10/10 03:12:41;;;;;;;14.90;8.95;;;17.10;99.90;;;;;;5102185;27;20062;-35
2023/10/10 03:28:20;;;;;;;;;;;17.10;99.90;;;;;;5098955;27;20206;-34
2023/10/10 03:31:03;;;;;;;12.27;7.28;;;17.10;99.90;;;;;;5077236;27;19912;-35
2023/10/10 03:33:35;;;;;;;28.00;7.97;;;17.00;99.90;;;;;;5095703;27;20217;-35
2023/10/10 05:25:41;;;;;;;26.30;12.45;;;16.60;99.90;;;;;;5104698;27;20075;-35
2023/10/10 05:28:09;;;;;;;14.50;11.82;;;16.70;99.90;;;;;;5042836;28;20116;-36
2023/10/10 05:30:45;;;;;;;26.50;11.32;;;16.60;99.90;;;;;;5081031;27;20112;-34
2023/10/10 05:33:12;;;;;;;20.42;11.25;;;16.70;99.90;;;;;;5163016;27;20073;-37
2023/10/10 05:35:48;;;;;;;20.92;13.10;;;16.70;99.90;;;;;;5118752;27;20049;-35
2023/10/10 05:38:19;;;;;;;21.50;12.65;;;16.60;99.90;;;;;;5158737;27;20049;-36
2023/10/10 05:40:47;;;;;;;18.70;12.70;;;16.60;99.90;;;;;;5121679;27;20077;-39
2023/10/10 05:43:15;;;;;;;19.08;11.55;;;16.60;99.90;;;;;;5149391;27;20031;-35
2023/10/10 05:45:45;;;;;;;15.77;12.73;;;16.60;99.90;;;;;;5139005;27;20919;-36
2023/10/10 05:48:12;;;;;;;20.50;13.98;;;16.60;99.90;;;;;;5089258;27;20031;-36
2023/10/10 05:50:40;;;;;;;19.30;13.48;;;16.60;99.90;;;;;;5087968;27;20089;-36
2023/10/10 05:53:09;;;;;;;19.38;11.95;;;16.60;99.90;;;;;;5100325;27;20065;-35
2023/10/10 05:55:35;;;;;;;16.80;12.40;;;16.60;99.90;;;;;;5078610;27;20025;-37
2023/10/10 05:58:02;;;;;;;18.27;13.00;;;16.60;99.90;;;;;;5111517;27;20084;-35
2023/10/10 06:00:32;;;;;;;19.20;14.88;;;16.60;99.90;;;;;;5069476;27;20459;-36
2023/10/10 06:02:57;;;;;;;23.52;17.35;;;16.60;99.90;;;;;;5121298;27;20033;-36
2023/10/10 06:05:26;;;;;;;25.40;18.02;;;16.60;99.90;;;;;;5069130;27;20029;-35
2023/10/10 06:07:52;;;;;;;19.52;15.52;;;16.70;99.90;;;;;;5120280;27;20020;-36
2023/10/10 06:10:18;;;;;;;23.33;17.20;;;16.60;99.90;;;;;;5061712;27;20650;-33
2023/10/10 06:12:47;;;;;;;19.50;15.38;;;16.60;99.90;;;;;;5126595;27;20020;-34
2023/10/10 06:15:17;;;;;;;21.95;15.43;;;16.60;99.90;;;;;;5060360;27;20856;-35
2023/10/10 06:17:44;;;;;;;20.25;15.30;;;16.60;99.90;;;;;;5127943;27;20025;-37
2023/10/10 06:20:22;;;;;;;21.33;15.60;;;16.60;99.90;;;;;;5061833;28;20487;-37
2023/10/10 06:22:48;;;;;;;22.52;15.52;;;16.60;99.90;;;;;;5126567;27;20091;-36
2023/10/10 06:25:17;;;;;;;21.98;15.50;;;16.60;99.90;;;;;;5061374;27;20024;-37
2023/10/10 06:27:46;;;;;;;23.10;16.55;;;16.60;99.90;;;;;;5125010;27;20082;-35
2023/10/10 06:30:17;;;;;;;19.23;15.63;;;16.60;99.90;;;;;;5041267;28;20480;-36
2023/10/10 06:32:46;;;;;;;21.90;15.93;;;16.60;99.90;;;;;;5112610;27;20029;-36
2023/10/10 06:37:41;;;;;;;22.60;16.40;;;16.60;99.90;;;;;;5109152;27;20791;-35
2023/10/10 06:40:09;;;;;;;19.88;15.90;;;16.60;99.90;;;;;;5076454;27;20075;-36
2023/10/10 06:42:35;;;;;;;21.88;15.13;;;16.60;99.90;;;;;;5094698;27;20030;-35
2023/10/10 06:45:11;;;;;;;21.90;15.75;;;16.60;99.90;;;;;;5121265;27;20025;-35
2023/10/10 06:47:44;;;;;;;24.52;17.42;;;16.60;99.90;;;;;;5136444;27;20028;-36
2023/10/10 06:50:13;;;;;;;22.90;18.10;;;16.60;99.90;;;;;;5133732;27;20448;-36
2023/10/10 06:52:39;;;;;;;24.80;18.38;;;16.60;99.90;;;;;;5143753;27;20499;-36
2023/10/10 06:55:10;;;;;;;22.48;17.35;;;16.60;99.90;;;;;;5123904;27;20050;-36
2023/10/10 06:57:40;;;;;;;26.33;18.40;;;16.60;99.90;;;;;;5154324;27;20026;-36
2023/10/10 07:00:32;;;;;;;22.52;18.02;;;16.60;99.90;;;;;;5110291;27;20028;-36
2023/10/10 07:02:57;;;;;;;27.73;19.58;;;16.60;99.90;;;;;;5078668;27;20380;-37
2023/10/10 07:05:26;;;;;;;25.98;19.23;;;16.60;99.90;;;;;;5105601;27;20540;-37
2023/10/10 07:07:58;;;;;;;28.50;21.23;;;16.70;99.90;;;;;;5071635;27;20017;-35
2023/10/10 07:10:36;;;;;;;23.52;17.98;;;16.70;99.90;;;;;;5111645;27;20043;-37
2023/10/10 07:13:03;;;;;;;23.70;17.27;;;16.60;99.90;;;;;;5070860;27;20028;-36
2023/10/10 07:15:37;;;;;;;22.23;16.70;;;16.70;99.90;;;;;;5119489;27;20029;-36
2023/10/10 07:18:15;;;;;;;22.25;17.88;;;16.60;99.90;;;;;;5071041;27;20429;-36
2023/10/10 07:23:37;;;;;;;24.75;18.50;;;16.60;99.90;;;;;;5156823;27;20090;-35
2023/10/10 07:26:19;;;;;;;20.58;15.85;;;16.60;99.90;;;;;;5124395;27;20026;-37
2023/10/10 07:28:48;;;;;;;24.75;17.90;;;16.60;99.90;;;;;;5152155;27;20026;-36
2023/10/10 07:31:18;;;;;;;18.90;14.98;;;16.70;99.90;;;;;;5124404;27;20499;-35
2023/10/10 07:34:03;;;;;;;20.05;15.15;;;16.60;99.90;;;;;;5160272;27;20911;-35
2023/10/10 07:36:31;;;;;;;21.35;16.08;;;16.60;99.90;;;;;;5129081;27;20026;-37
2023/10/10 07:41:47;;;;;;;20.85;15.30;;;16.60;99.90;;;;;;5130217;27;20049;-35
2023/10/10 07:44:17;;;;;;;17.30;14.23;;;16.60;99.90;;;;;;5154059;27;20017;-36
2023/10/10 07:49:27;;;;;;;18.48;15.13;;;16.60;99.90;;;;;;5146384;27;20116;-35
2023/10/10 07:51:52;;;;;;;18.10;13.77;;;16.60;99.90;;;;;;5111981;27;20103;-36
2023/10/10 07:54:29;;;;;;;14.75;12.93;;;16.60;99.90;;;;;;5070257;27;20080;-35
2023/10/10 07:57:03;;;;;;;15.60;12.38;;;16.60;99.90;;;;;;5107627;27;20082;-36
2023/10/10 07:59:29;;;;;;;14.95;13.02;;;16.60;99.90;;;;;;5161718;27;20026;-36
2023/10/10 08:01:56;;;;;;;14.35;11.60;;;16.60;99.90;;;;;;5098913;27;20255;-36
2023/10/10 08:04:22;;;;;;;15.73;12.60;;;16.60;99.90;;;;;;5161982;27;20024;-35
2023/10/10 08:06:48;;;;;;;16.13;13.65;;;16.70;99.90;;;;;;5110515;27;20559;-35
2023/10/10 08:11:46;;;;;;;16.23;12.45;;;16.70;99.90;;;;;;5103766;27;20056;-36
2023/10/10 08:14:12;;;;;;;15.10;12.32;;;16.70;99.90;;;;;;5169014;27;20076;-36
2023/10/10 08:16:39;;;;;;;14.40;12.18;;;16.80;99.90;;;;;;5102894;27;20752;-35
2023/10/10 08:19:07;;;;;;;14.88;10.80;;;16.80;99.90;;;;;;5168476;27;20045;-36
2023/10/10 08:21:48;;;;;;;14.43;11.40;;;16.90;99.90;;;;;;5103080;27;20028;-36
2023/10/10 08:24:15;;;;;;;12.15;10.32;;;16.90;99.90;;;;;;5043575;28;20033;-34
2023/10/10 08:26:40;;;;;;;12.23;10.77;;;17.00;99.90;;;;;;5123028;27;20026;-37
2023/10/10 08:29:10;;;;;;;15.25;11.43;;;17.00;99.90;;;;;;5064874;27;20032;-35
2023/10/10 08:31:37;;;;;;;13.93;10.68;;;17.00;99.90;;;;;;5115912;27;20030;-35
2023/10/10 08:34:04;;;;;;;12.82;10.60;;;17.00;99.90;;;;;;5074936;27;20068;-36
2023/10/10 08:36:31;;;;;;;14.52;11.48;;;17.10;99.90;;;;;;5103230;27;20030;-36
2023/10/10 08:41:43;;;;;;;14.27;10.68;;;17.10;99.90;;;;;;5104221;27;20045;-36
2023/10/10 08:44:10;;;;;;;12.48;10.43;;;17.20;99.90;;;;;;5085987;27;20125;-35
2023/10/10 08:46:48;;;;;;;17.95;13.13;;;17.10;99.90;;;;;;5126255;27;20475;-36
2023/10/10 08:49:15;;;;;;;16.08;12.88;;;17.20;99.90;;;;;;5141152;27;20039;-36
2023/10/10 08:51:48;;;;;;;16.92;12.38;;;17.20;99.90;;;;;;5140435;27;20063;-36
2023/10/10 08:54:15;;;;;;;13.23;11.05;;;17.20;99.90;;;;;;5133269;27;20026;-35
2023/10/10 08:56:59;;;;;;;15.15;12.48;;;17.20;99.90;;;;;;5149899;27;20026;-36
2023/10/10 08:59:29;;;;;;;12.10;9.63;;;17.20;99.90;;;;;;5134575;27;20160;-36
2023/10/10 09:02:07;;;;;;;11.48;9.57;;;17.30;99.90;;;;;;5147160;27;20500;-36
2023/10/10 09:04:38;;;;;;;13.20;9.30;;;17.30;99.90;;;;;;5132554;27;20030;-35
2023/10/10 09:07:08;;;;;;;11.68;9.27;;;17.30;99.90;;;;;;5147459;27;20420;-36
2023/10/10 09:09:40;;;;;;;12.73;10.45;;;17.40;99.90;;;;;;5125895;27;20198;-36
2023/10/10 09:12:14;;;;;;;13.02;11.05;;;17.40;99.90;;;;;;5153899;27;20022;-36
2023/10/10 09:14:50;;;;;;;13.27;10.43;;;17.40;99.90;;;;;;5122871;27;20113;-36
2023/10/10 09:17:28;;;;;;;13.38;9.90;;;17.40;99.90;;;;;;5153968;27;20378;-36
2023/10/10 09:19:58;;;;;;;12.25;9.90;;;17.50;99.90;;;;;;5125522;27;20127;-36
2023/10/10 09:22:34;;;;;;;10.35;8.63;;;17.50;99.90;;;;;;5155682;27;20038;-36
2023/10/10 09:25:17;;;;;;;12.30;9.77;;;17.50;99.90;;;;;;5120442;27;20143;-36
2023/10/10 09:27:59;;;;;;;9.85;8.13;;;17.60;99.90;;;;;;5148704;27;20022;-36
2023/10/10 09:30:31;;;;;;;10.52;8.73;;;17.60;99.90;;;;;;5131566;27;20019;-37
2023/10/10 09:33:00;;;;;;;10.93;8.80;;;17.70;99.90;;;;;;5146413;27;20022;-37
2023/10/10 09:35:28;;;;;;;9.48;8.15;;;17.70;99.90;;;;;;5125084;27;20604;-37
2023/10/10 09:37:57;;;;;;;10.27;8.00;;;17.70;99.90;;;;;;5154419;27;20119;-36
2023/10/10 09:40:24;;;;;;;8.68;7.78;;;17.80;99.90;;;;;;5115891;27;20030;-34
2023/10/10 09:46:36;;;;;;;12.60;10.80;;;17.90;99.90;;;;;;5060052;27;20032;-37
2023/10/10 09:48:59;;;;;;;13.30;10.10;;;17.90;99.90;;;;;;5087251;27;20040;-36
2023/10/10 09:54:15;;;;;;;10.77;9.60;;;17.90;99.90;;;;;;5060325;27;20037;-36
2023/10/10 09:57:08;;;;;;;12.40;9.98;;;17.90;99.90;;;;;;5149563;27;20026;-36
2023/10/10 09:59:37;;;;;;;;;;;18.00;99.90;;;;;;5102946;27;20045;-37
2023/10/10 10:02:05;;;;;;;10.80;8.65;;;18.00;99.90;;;;;;5157157;27;19916;-37
2023/10/10 10:04:41;;;;;;;10.60;9.32;;;18.00;99.90;;;;;;5123566;27;20097;-36
2023/10/10 10:07:17;;;;;;;11.88;9.45;;;18.10;99.90;;;;;;5152409;27;20018;-35
2023/10/10 10:10:22;;;;;;;9.80;8.63;;;18.20;99.90;;;;;;5121540;27;20108;-37
2023/10/10 10:13:28;;;;;;;11.63;9.93;;;18.20;99.90;;;;;;5041496;28;20121;-36
2023/10/10 10:16:08;;;;;;;9.98;8.63;;;18.30;99.90;;;;;;5112692;27;20032;-38
2023/10/10 10:18:44;;;;;;;12.88;11.43;;;18.30;99.90;;;;;;5063076;27;20043;-38
2023/10/10 10:21:19;;;;;;;11.88;10.20;;;18.40;99.90;;;;;;5116627;27;20023;-36
2023/10/10 10:23:56;;;;;;;12.20;9.90;;;18.40;99.90;;;;;;5062612;27;20043;-38
2023/10/10 10:29:15;;;;;;;12.50;10.00;;;18.50;99.90;;;;;;5062033;27;20036;-37
2023/10/10 10:31:57;;;;;;;11.15;8.63;;;18.50;99.90;;;;;;5117657;27;20029;-37
2023/10/10 10:34:32;;;;;;;10.13;8.48;;;18.60;99.90;;;;;;5067599;27;20042;-36
2023/10/10 10:37:19;;;;;;;12.85;11.13;;;18.60;99.90;;;;;;5120398;27;20099;-36
2023/10/10 10:42:40;;;;;;;16.85;12.88;;;18.80;99.90;;;;;;5117606;27;20819;-36
2023/10/10 10:45:36;;;;;;;12.77;10.38;;;18.90;99.90;;;;;;5149992;27;20398;-36
2023/10/10 10:48:30;;;;;;;13.20;10.07;;;18.90;99.90;;;;;;5076678;27;20032;-37
2023/10/10 10:51:41;;;;;;;13.18;11.45;;;19.00;99.90;;;;;;5100024;27;20018;-35
2023/10/10 10:53:58;;;;;;;11.40;9.25;;;19.10;99.90;;;;;;5064934;27;20036;-36
2023/10/10 10:59:12;;;;;;;;;;;19.20;99.90;;;;;;5071646;27;20513;-36
2023/10/10 11:01:47;;;;;;;11.30;8.55;;;19.30;99.90;;;;;;5114559;27;19998;-36
2023/10/10 11:04:25;;;;;;;13.77;9.73;;;19.30;99.90;;;;;;5065280;27;20021;-37
2023/10/10 11:07:03;;;;;;;11.57;8.75;;;19.30;99.90;;;;;;5081698;27;20387;-38
2023/10/10 11:09:33;;;;;;;13.63;11.32;;;19.40;99.90;;;;;;5164805;27;20030;-38
2023/10/10 11:12:03;;;;;;;11.95;10.20;;;19.50;99.90;;;;;;5111716;27;20143;-37
2023/10/10 11:14:33;;;;;;;13.80;10.48;;;19.50;99.90;;;;;;5158055;27;20056;-37
2023/10/10 11:16:59;;;;;;;15.25;10.60;;;19.60;99.90;;;;;;5118667;27;20391;-37
2023/10/10 11:22:01;;;;;;;8.57;7.30;;;19.70;99.90;;;;;;5126614;27;20041;-36
2023/10/10 11:24:31;;;;;;;10.38;8.85;;;19.70;99.90;;;;;;5140447;27;20022;-37
2023/10/10 11:27:07;;;;;;;10.10;7.90;;;19.70;99.90;;;;;;5136127;27;20031;-35
2023/10/10 11:29:46;;;;;;;11.30;8.82;;;19.80;99.90;;;;;;5137886;27;20089;-35
2023/10/10 11:32:23;;;;;;;9.80;8.70;;;19.80;99.90;;;;;;5132233;27;20028;-34
2023/10/10 11:34:56;;;;;;;10.60;8.40;;;19.80;99.90;;;;;;5142613;27;20721;-35
2023/10/10 11:37:31;;;;;;;8.57;7.40;;;19.90;99.90;;;;;;5132824;27;20025;-35
2023/10/10 11:43:03;;;;;;;13.27;9.82;;;20.00;99.90;;;;;;5117781;27;20055;-35
2023/10/10 11:45:30;;;;;;;9.45;7.50;;;20.00;99.90;;;;;;5122266;27;20039;-35
2023/10/10 11:48:10;;;;;;;11.60;8.85;;;20.00;99.90;;;;;;5103162;27;20613;-37
2023/10/10 11:50:48;;;;;;;8.90;7.05;;;20.10;99.90;;;;;;5072663;27;20072;-35
2023/10/10 11:53:19;;;;;;;9.50;7.40;;;20.10;99.90;;;;;;5107267;27;20037;-36
2023/10/10 11:55:46;;;;;;;9.93;7.57;;;20.20;99.90;;;;;;5073644;27;20035;-35
2023/10/10 11:58:17;;;;;;;10.23;7.63;;;20.30;99.90;;;;;;5049973;28;20021;-36
2023/10/10 12:00:59;;;;;;;8.55;7.22;;;20.40;99.90;;;;;;5057413;28;20232;-36
2023/10/10 12:06:14;;;;;;;9.02;7.20;;;20.60;99.90;;;;;;5076598;27;20028;-37
2023/10/10 12:08:48;;;;;;;9.88;7.68;;;20.70;99.90;;;;;;5108551;27;20441;-35
2023/10/10 12:11:19;;;;;;;9.95;7.43;;;20.80;99.90;;;;;;5079144;27;20966;-36
2023/10/10 12:13:52;;;;;;;9.80;7.37;;;21.00;99.90;;;;;;5104502;27;20028;-35
2023/10/10 12:16:23;;;;;;;11.45;8.88;;;21.10;99.90;;;;;;5081035;27;20039;-36
2023/10/10 12:18:55;;;;;;;9.18;7.10;;;21.10;99.90;;;;;;5075803;27;20538;-35
2023/10/10 12:21:21;;;;;;;9.10;7.00;;;21.10;99.90;;;;;;5066795;27;20036;-36
2023/10/10 12:23:48;;;;;;;8.48;6.63;;;21.10;99.90;;;;;;5090113;27;20026;-36
2023/10/10 12:26:13;;;;;;;9.00;6.95;;;21.10;99.90;;;;;;5100605;27;20029;-36
2023/10/10 12:28:39;;;;;;;9.25;6.72;;;21.00;99.90;;;;;;5076679;27;20076;-35
2023/10/10 12:31:08;;;;;;;9.48;7.05;;;21.00;99.90;;;;;;5114829;27;20029;-36
2023/10/10 12:33:36;;;;;;;11.45;7.65;;;20.90;99.90;;;;;;5070125;27;20021;-35
2023/10/10 12:36:09;;;;;;;10.05;7.30;;;20.90;99.90;;;;;;5121676;27;20056;-35
2023/10/10 12:38:37;;;;;;;9.15;7.30;;;21.00;99.90;;;;;;5070030;27;20023;-36
2023/10/10 12:41:05;;;;;;;12.88;8.18;;;21.00;99.90;;;;;;5120816;27;20016;-37
2023/10/10 12:43:30;;;;;;;10.32;8.10;;;21.00;99.90;;;;;;5068108;27;20384;-36
2023/10/10 12:45:56;;;;;;;8.73;7.00;;;21.10;99.90;;;;;;5099281;27;20031;-37
2023/10/10 12:48:22;;;;;;;8.27;6.50;;;21.10;99.90;;;;;;5060005;28;20028;-36
2023/10/10 12:50:50;;;;;;;8.45;6.60;;;21.20;99.90;;;;;;5099504;27;20043;-37
2023/10/10 12:53:16;;;;;;;8.30;5.88;;;21.20;99.90;;;;;;5166439;27;20113;-36
2023/10/10 12:55:48;;;;;;;8.38;6.68;;;21.20;99.90;;;;;;5100698;27;20020;-35
2023/10/10 12:58:22;;;;;;;9.07;5.63;;;21.30;99.90;;;;;;5041616;28;20074;-36
2023/10/10 13:00:52;;;;;;;7.22;5.80;;;21.30;99.90;;;;;;5119303;27;20484;-35
2023/10/10 13:03:19;;;;;;;9.90;6.95;;;21.40;99.90;;;;;;5040288;27;20089;-35
2023/10/10 13:05:51;;;;;;;9.05;6.68;;;21.40;99.90;;;;;;5107411;27;20384;-35
2023/10/10 13:08:55;;;;;;;8.90;6.68;;;21.50;99.90;;;;;;5068984;27;20033;-35
2023/10/10 13:11:32;;;;;;;7.80;5.68;;;21.50;99.90;;;;;;5126682;27;20613;-37
2023/10/10 13:14:08;;;;;;;9.05;6.88;;;21.50;99.90;;;;;;5059942;28;20025;-36
2023/10/10 13:19:06;;;;;;;8.10;6.13;;;21.60;99.90;;;;;;5060583;28;20081;-36
2023/10/10 13:21:39;;;;;;;8.65;6.63;;;21.70;99.90;;;;;;5125370;27;20018;-36
2023/10/10 13:24:09;;;;;;;9.18;6.20;;;21.80;99.90;;;;;;5039244;28;20391;-36
2023/10/10 13:26:39;;;;;;;5.80;5.03;;;21.90;99.90;;;;;;5115240;27;20026;-35
2023/10/10 13:29:06;;;;;;;7.70;5.60;;;22.00;99.90;;;;;;5064431;27;20032;-36
2023/10/10 13:31:32;;;;;;;8.50;6.47;;;22.10;99.90;;;;;;5109622;27;20380;-37
2023/10/10 13:33:58;;;;;;;7.82;5.72;;;22.20;99.90;;;;;;5076460;27;20060;-34
2023/10/10 13:36:24;;;;;;;6.72;5.20;;;22.30;99.90;;;;;;5097178;27;20054;-36
2023/10/10 13:38:57;;;;;;;7.97;5.55;;;22.30;99.90;;;;;;5089493;27;20655;-37
2023/10/10 13:41:27;;;;;;;7.88;5.68;;;22.40;99.90;;;;;;5054331;28;20025;-36
2023/10/10 13:43:59;;;;;;;8.95;6.25;;;22.50;99.90;;;;;;5131126;27;20396;-35
2023/10/10 13:46:27;;;;;;;7.47;5.80;;;22.60;99.90;;;;;;5120607;27;20021;-37
2023/10/10 13:48:53;;;;;;;7.93;5.82;;;22.60;99.90;;;;;;5103517;27;20028;-36
2023/10/10 13:51:19;;;;;;;8.13;5.32;;;22.70;99.90;;;;;;5070288;27;20356;-35
2023/10/10 13:53:46;;;;;;;7.63;5.80;;;22.70;99.90;;;;;;5117812;27;20478;-36
2023/10/10 13:56:16;;;;;;;8.00;5.40;;;22.70;99.90;;;;;;5068925;27;20033;-36
2023/10/10 13:58:47;;;;;;;6.45;4.97;;;22.80;99.90;;;;;;5120796;27;20060;-37
2023/10/10 14:03:45;;;;;;;6.35;4.75;;;22.90;99.90;;;;;;5120403;27;20048;-36
2023/10/10 14:06:34;;;;;;;6.22;4.90;;;23.00;99.90;;;;;;5062280;27;20024;-36
2023/10/10 14:09:00;;;;;;;6.22;5.07;;;23.00;99.90;;;;;;5119115;27;20035;-37
2023/10/10 14:11:26;;;;;;;8.15;5.68;;;23.00;99.90;;;;;;5068036;27;20048;-36
2023/10/10 14:13:55;;;;;;;6.13;4.65;;;22.90;99.90;;;;;;5121809;27;20478;-36
2023/10/10 14:16:22;;;;;;;7.50;4.95;;;22.80;99.90;;;;;;5061211;28;20040;-37
2023/10/10 14:18:52;;;;;;;8.27;5.68;;;22.80;99.90;;;;;;5127281;27;20020;-35
2023/10/10 14:21:25;;;;;;;6.07;4.72;;;22.70;99.90;;;;;;5061505;28;20029;-34
2023/10/10 14:24:04;;;;;;;6.47;5.00;;;22.60;99.90;;;;;;5127506;27;20034;-36
2023/10/10 14:26:30;;;;;;;6.43;4.50;;;22.50;99.90;;;;;;5061198;28;20033;-34
2023/10/10 14:28:57;;;;;;;6.72;4.20;;;22.40;99.90;;;;;;5127350;27;20085;-35
2023/10/10 14:31:42;;;;;;;5.25;4.05;;;22.30;99.90;;;;;;5058471;28;20032;-35
2023/10/10 14:34:08;;;;;;;7.43;4.20;;;22.30;99.90;;;;;;5125992;27;20054;-35
2023/10/10 14:36:39;;;;;;;6.03;4.13;;;22.30;99.90;;;;;;5063206;27;20501;-37
2023/10/10 14:39:08;;;;;;;5.47;4.10;;;22.30;99.90;;;;;;5123197;27;20070;-35
2023/10/10 14:41:41;;;;;;;5.57;4.18;;;22.30;99.90;;;;;;5061342;27;20502;-37
2023/10/10 14:44:12;;;;;;;5.32;3.22;;;22.30;99.90;;;;;;5117491;27;20066;-36
2023/10/10 14:46:40;;;;;;;6.30;3.88;;;22.30;99.90;;;;;;5140013;27;20022;-36
2023/10/10 14:49:16;;;;;;;10.95;4.43;;;22.30;99.90;;;;;;5116988;27;20044;-35
2023/10/10 14:51:54;;;;;;;5.82;4.22;;;22.30;99.90;;;;;;5156951;27;20026;-34
2023/10/10 14:54:19;;;;;;;5.28;4.30;;;22.40;99.90;;;;;;5114049;27;20027;-35
2023/10/10 14:56:46;;;;;;;5.72;3.75;;;22.50;99.90;;;;;;5152129;27;20030;-35
2023/10/10 14:59:17;;;;;;;6.15;4.28;;;22.50;99.90;;;;;;5128950;27;20016;-34
2023/10/10 15:01:50;;;;;;;6.13;4.40;;;22.50;99.90;;;;;;5141627;27;20026;-36
2023/10/10 15:04:17;;;;;;;7.18;4.32;;;22.60;99.90;;;;;;5134097;27;20183;-37
2023/10/10 15:06:44;;;;;;;6.30;4.30;;;22.60;99.90;;;;;;5061426;27;20824;-36
2023/10/10 15:09:14;;;;;;;4.75;3.72;;;22.60;99.90;;;;;;5081158;27;20666;-36
2023/10/10 15:11:41;;;;;;;6.70;5.00;;;22.70;99.90;;;;;;5103019;27;20029;-35
2023/10/10 15:14:09;;;;;;;5.63;4.47;;;22.70;99.90;;;;;;5071884;27;20037;-36
2023/10/10 15:16:36;;;;;;;5.95;3.95;;;22.60;99.90;;;;;;5112927;27;20494;-36
2023/10/10 15:19:03;;;;;;;6.07;4.13;;;22.60;99.90;;;;;;5066999;27;20480;-36
2023/10/10 15:21:32;;;;;;;4.32;3.33;;;22.50;99.90;;;;;;5119571;27;20032;-35
2023/10/10 15:23:59;;;;;;;5.22;3.75;;;22.50;99.90;;;;;;5062554;27;20067;-35
2023/10/10 15:26:24;;;;;;;5.53;4.13;;;22.50;99.90;;;;;;5107686;27;20380;-36
2023/10/10 15:28:52;;;;;;;6.07;4.03;;;22.50;99.90;;;;;;5166456;27;20018;-36
2023/10/10 15:31:19;;;;;;;5.97;3.80;;;22.50;99.90;;;;;;5098182;27;20841;-36
2023/10/10 15:33:48;;;;;;;5.55;3.55;;;22.50;99.90;;;;;;5166347;27;20029;-37
2023/10/10 15:36:16;;;;;;;5.97;4.10;;;22.50;99.90;;;;;;5100333;27;20079;-37
2023/10/10 15:38:41;;;;;;;5.40;3.58;;;22.50;99.90;;;;;;5157388;27;20041;-36
2023/10/10 15:41:23;;;;;;;7.10;3.38;;;22.40;99.90;;;;;;5124329;27;20024;-37
2023/10/10 15:43:48;;;;;;;5.75;3.53;;;22.30;99.90;;;;;;5043427;28;20061;-35
2023/10/10 15:46:15;;;;;;;5.97;3.85;;;22.30;99.90;;;;;;5117921;27;20105;-35
2023/10/10 15:48:51;;;;;;;4.65;3.40;;;22.20;99.90;;;;;;5070622;27;20053;-37
2023/10/10 15:51:17;;;;;;;5.70;3.38;;;22.20;99.90;;;;;;5115707;27;20025;-36
2023/10/10 15:53:43;;;;;;;4.60;3.28;;;22.10;99.90;;;;;;5077175;27;20024;-36
2023/10/10 15:56:14;;;;;;;4.55;3.50;;;22.10;99.90;;;;;;5103331;27;20026;-35
2023/10/10 15:58:52;;;;;;;5.68;3.35;;;22.00;99.90;;;;;;5087127;27;20032;-40